CYBV

Berens River  Airport

Berens River, Manitoba, Canada

CYBV 242200Z 34011G23KT 6SM -SN DRSN SCT012 OVC025 M11/M14 A2954 RMK SC4SC4 VIS W 3/SNW CVR/MUCH LOOSE/LAS STFD OBS/NEXT 271300UTC SLP022

Observed Flight Rules
Nov-24 @ 22:00 UTC (4 hours ago)
 
Marginal Visual Flight Rules
Wind Visibility Clouds Conditions
340° at 11 knots
 Gusting to 23 knots
6 miles
  • Scattered at 1,200' AGL
  • Overcast at 2,500' AGL
  • Light Snow
  • Low drifting
  • Snow
Temperatures Readings
Current -11°C / 12°F
Dewpoint -14°C / 7°F
Humidity 79%
Altimeter 29.54" Hg
Pressure 1002.2 hPa
Elevation 222
Observed Flight Rules
Nov-24 @ 22:00 UTC
(4 hours ago)
 
MVFR
Wind Visibility
340° at 11 knots
 Gusting to 23 knots
6 miles
Clouds
  • Scattered at 1,200' AGL
  • Overcast at 2,500' AGL
Conditions
  • Light Snow
  • Low drifting
  • Snow
Temperature Dewpoint
-11°C / 12°F -14°C / 7°F
Humidity Altimeter Pressure
79% 29.54" Hg 1002.2 hPa